Kezdőlap
METAR-TAF:

METAR-TAF

Repülőterek :

Ankeny Regional Airport

Ankeny, Iowa, Amerikai Egyesült Államok

földrajzi szélesség: 41-41-24N, földrajzi hosszúság: 093-33-57W, magasság: 275 m

Jelenlegi meteorológiai megfigyelések

A jelentés 33 perccel ezelõtt készült, 13:55 UTC
Kelet-délkeleti szél 15 kt széllökések: 20 kt
Hőmérséklet 16°C
Páratartalom 82%
Légköri nyomás 1002 hPa
Látótávolság: 8.0 km
Kevés felhő 3200 lábon
Kevés felhő 4100 lábon
Szórványos felhőzet 9000 lábon
enyhe esõ

METAR: KIKV 161355Z AUTO 11015G20KT 5SM -RA FEW032 FEW041 SCT090 16/13 A2958 RMK AO2

Idő: 09:28 (14:28 UTC)


TAF: hiányzik

Meteorológiai megfigyelések és előrejelzések több, mint 4000 repülőtéren (METAR és TAF jelentéseket).

A térképen piros és sárga pontok jelzik az elérhető meteorológiai állomásokat.

Mozgassa az egeret a pont fölött, hogy megjelenjen az állomás neve.

Azután kattintson az időjárási megfigyelések és előrejelzések megtekintéséhez.

A térkép megváltoztatása: kattintson a fekete keresztel jelölt zöld gombra ráközelítéshez, a vonallal jelölt zöld gombra távolításhoz, vagy a zöld nyilakra a szomszédos térképek eléréséhez.


METAR-TAF: